Terminal Aerodrome Forecast
Issued by NWS State College, PA

Home | Current Version | Previous Version | Text Only | Print | Product List | Glossary On
Versions: 1 2 3 4 5 6 7 8 9 10 11 12 13 14 15 16 17 18 19 20 21 22 23 24 25 26 27 28 29 30
000
FTUS41 KCTP 250601 AAA
TAFMDT
TAF AMD
KMDT 250601Z 2506/2606 16007KT P6SM BKN018
     FM250900 16006KT 5SM BR SCT008 OVC015
     FM251400 17010G20KT 6SM BR SCT008 OVC015
      TEMPO 2518/2520 2SM -TSRA OVC012CB
     FM252000 28013G25KT P6SM BKN050=

USA.gov is the U.S. government's official web portal to all federal, state and local government web resources and services.